createdAt,value
2018-09-03T00:01:15.859Z,12.50
2018-09-03T00:03:45.654Z,12.50
2018-09-03T00:06:16.401Z,12.40
2018-09-03T00:08:46.325Z,12.40
2018-09-03T00:11:16.368Z,12.30
2018-09-03T00:13:46.324Z,12.20
2018-09-03T00:16:16.356Z,12.20
2018-09-03T00:18:46.367Z,12.10
2018-09-03T00:21:16.970Z,12.00
2018-09-03T00:23:46.722Z,11.90
2018-09-03T00:26:16.689Z,11.90
2018-09-03T00:28:46.640Z,11.80
2018-09-03T00:31:27.047Z,11.70
2018-09-03T00:34:02.125Z,11.80
2018-09-03T00:37:37.048Z,11.80
2018-09-03T00:40:12.279Z,11.90
2018-09-03T00:42:47.291Z,12.10
2018-09-03T00:48:18.579Z,12.30
2018-09-03T00:50:48.614Z,12.30
2018-09-03T00:53:18.719Z,12.40
2018-09-03T00:55:48.859Z,12.50
2018-09-03T00:58:18.873Z,12.50
2018-09-03T01:00:48.874Z,12.50
2018-09-03T01:03:18.897Z,12.50
2018-09-03T01:05:48.948Z,12.50
2018-09-03T01:08:18.966Z,12.50
2018-09-03T01:10:48.950Z,12.50
2018-09-03T01:13:18.870Z,12.50
2018-09-03T01:15:52.720Z,12.50
2018-09-03T01:18:22.708Z,12.50
2018-09-03T01:20:52.791Z,12.50
2018-09-03T01:23:22.798Z,12.60
2018-09-03T01:26:04.039Z,12.60
2018-09-03T01:28:34.364Z,12.60
2018-09-03T01:31:05.066Z,12.70
2018-09-03T01:33:35.562Z,12.70
2018-09-03T01:36:05.792Z,12.70
2018-09-03T01:38:36.463Z,12.80
2018-09-03T01:41:17.055Z,12.80
2018-09-03T01:43:47.370Z,12.90
2018-09-03T01:46:17.150Z,12.90
2018-09-03T01:48:47.031Z,12.90
2018-09-03T01:51:16.882Z,13.00
2018-09-03T01:53:46.783Z,13.00
2018-09-03T01:56:27.590Z,13.00
2018-09-03T01:58:57.572Z,13.00
2018-09-03T02:01:27.487Z,13.10
2018-09-03T02:04:11.017Z,13.10
2018-09-03T02:06:41.464Z,13.10
2018-09-03T02:09:12.980Z,13.10
2018-09-03T02:11:55.589Z,13.10
2018-09-03T02:14:25.598Z,13.20
2018-09-03T02:16:55.310Z,13.20
2018-09-03T02:19:25.333Z,13.20
2018-09-03T02:21:55.282Z,13.20
2018-09-03T02:24:33.071Z,13.30
2018-09-03T02:27:03.342Z,13.30
2018-09-03T02:29:33.360Z,13.30
2018-09-03T02:32:03.624Z,13.30
2018-09-03T02:34:33.637Z,13.20
2018-09-03T02:37:03.377Z,13.10
2018-09-03T02:39:33.433Z,13.10
2018-09-03T02:42:03.158Z,13.00
2018-09-03T02:44:33.334Z,12.90
2018-09-03T02:47:03.219Z,12.80
2018-09-03T02:49:33.223Z,12.70
2018-09-03T02:52:03.391Z,12.60
2018-09-03T02:54:33.310Z,12.60
2018-09-03T02:57:03.277Z,12.50
2018-09-03T02:59:33.239Z,12.50
2018-09-03T03:02:03.722Z,12.50
2018-09-03T03:04:33.806Z,12.50
2018-09-03T03:07:03.794Z,12.50
2018-09-03T03:09:33.852Z,12.60
2018-09-03T03:12:04.865Z,12.60
2018-09-03T03:14:34.776Z,12.60
2018-09-03T03:17:05.237Z,12.60
2018-09-03T03:19:35.373Z,12.60
2018-09-03T03:22:05.394Z,12.70
2018-09-03T03:24:35.506Z,12.60
2018-09-03T03:27:05.631Z,12.70
2018-09-03T03:29:35.550Z,12.70
2018-09-03T03:32:05.591Z,12.80
2018-09-03T03:34:35.538Z,12.80
2018-09-03T03:37:06.282Z,12.90
2018-09-03T03:39:36.352Z,12.90
2018-09-03T03:42:06.673Z,12.90
2018-09-03T03:44:36.950Z,13.00
2018-09-03T03:47:07.095Z,13.00
2018-09-03T03:49:36.975Z,13.10
2018-09-03T03:52:07.574Z,13.20
2018-09-03T03:54:37.446Z,13.20
2018-09-03T03:57:08.106Z,13.20
2018-09-03T03:59:38.046Z,13.30
2018-09-03T04:02:10.039Z,13.30
2018-09-03T04:04:40.159Z,13.40
2018-09-03T04:07:10.024Z,13.30
2018-09-03T04:09:40.050Z,13.30
2018-09-03T04:12:09.889Z,13.30
2018-09-03T04:14:39.862Z,13.30
2018-09-03T04:17:10.016Z,13.30
2018-09-03T04:19:39.814Z,13.40
2018-09-03T04:22:09.734Z,13.40
2018-09-03T04:24:39.900Z,13.40
2018-09-03T04:27:09.690Z,13.50
2018-09-03T04:29:39.839Z,13.50
2018-09-03T04:32:09.773Z,13.50
2018-09-03T04:34:39.485Z,13.50
2018-09-03T04:37:09.197Z,13.50
2018-09-03T04:39:38.919Z,13.50
2018-09-03T04:42:08.663Z,13.50
2018-09-03T04:44:38.256Z,13.50
2018-09-03T04:47:07.681Z,13.60
2018-09-03T04:49:39.354Z,13.50
2018-09-03T04:52:08.716Z,13.50
2018-09-03T04:54:38.383Z,13.50
2018-09-03T04:57:07.853Z,13.50
2018-09-03T04:59:37.401Z,13.50
2018-09-03T05:02:07.034Z,13.40
2018-09-03T05:04:36.425Z,13.40
2018-09-03T05:07:06.047Z,13.40
2018-09-03T05:09:35.767Z,13.40
2018-09-03T05:12:07.068Z,13.40
2018-09-03T05:14:36.913Z,13.40
2018-09-03T05:17:06.906Z,13.50
2018-09-03T05:19:36.878Z,13.50
2018-09-03T05:22:08.529Z,13.60
2018-09-03T05:24:38.057Z,13.60
2018-09-03T05:27:12.485Z,13.70
2018-09-03T05:29:41.969Z,13.80
2018-09-03T05:32:11.489Z,13.80
2018-09-03T05:34:40.981Z,13.80
2018-09-03T05:37:10.516Z,13.90
2018-09-03T05:39:40.006Z,13.90
2018-09-03T05:42:09.559Z,14.00
2018-09-03T05:44:39.054Z,14.00
2018-09-03T05:47:08.613Z,14.00
2018-09-03T05:49:40.057Z,14.00
2018-09-03T05:52:09.603Z,14.10
2018-09-03T05:54:39.141Z,14.10
2018-09-03T05:57:08.611Z,14.20
2018-09-03T05:59:38.085Z,14.20
2018-09-03T06:02:07.669Z,14.30
2018-09-03T06:04:37.099Z,14.40
2018-09-03T06:07:07.057Z,14.30
2018-09-03T06:09:36.583Z,14.30
2018-09-03T06:12:07.729Z,14.40
2018-09-03T06:14:37.096Z,14.40
2018-09-03T06:17:06.954Z,14.40
2018-09-03T06:19:36.691Z,14.50
2018-09-03T06:22:07.129Z,14.60
2018-09-03T06:24:36.745Z,14.70
2018-09-03T06:27:06.828Z,14.80
2018-09-03T06:29:37.120Z,14.90
2018-09-03T06:32:07.199Z,15.00
2018-09-03T06:34:37.277Z,15.00
2018-09-03T06:37:08.150Z,15.10
2018-09-03T06:39:38.100Z,15.10
2018-09-03T06:42:08.584Z,15.10
2018-09-03T06:44:45.494Z,15.10
2018-09-03T06:47:15.746Z,15.10
2018-09-03T06:49:45.834Z,15.20
2018-09-03T06:52:15.623Z,15.40
2018-09-03T06:54:45.458Z,15.60
2018-09-03T06:57:15.422Z,15.70
2018-09-03T06:59:45.543Z,15.90
2018-09-03T07:02:15.622Z,16.00
2018-09-03T07:04:45.462Z,16.10
2018-09-03T07:07:15.466Z,16.20
2018-09-03T07:09:45.599Z,16.30
2018-09-03T07:12:15.627Z,16.40
2018-09-03T07:14:45.499Z,16.50
2018-09-03T07:17:15.466Z,16.50
2018-09-03T07:19:45.596Z,16.60
2018-09-03T07:22:15.531Z,16.60
2018-09-03T07:24:45.570Z,16.60
2018-09-03T07:27:15.527Z,16.50
2018-09-03T07:29:45.780Z,16.40
2018-09-03T07:32:15.789Z,16.40
2018-09-03T07:34:46.123Z,16.20
2018-09-03T07:37:16.110Z,16.30
2018-09-03T07:39:49.721Z,16.30
2018-09-03T07:42:19.813Z,16.40
2018-09-03T07:44:49.726Z,16.40
2018-09-03T07:47:20.059Z,16.40
2018-09-03T07:49:49.978Z,16.50
2018-09-03T07:52:32.801Z,16.50
2018-09-03T07:55:02.767Z,16.60
2018-09-03T07:57:33.666Z,16.60
2018-09-03T08:00:04.028Z,16.60
2018-09-03T08:02:33.778Z,16.50
2018-09-03T08:05:04.175Z,16.60
2018-09-03T08:07:36.475Z,16.60
2018-09-03T08:10:06.373Z,16.70
2018-09-03T08:12:36.382Z,16.90
2018-09-03T08:15:07.078Z,16.90
2018-09-03T08:17:37.091Z,17.10
2018-09-03T08:20:07.994Z,17.20
2018-09-03T08:22:38.382Z,17.20
2018-09-03T08:25:08.394Z,17.40
2018-09-03T08:27:38.185Z,17.50
2018-09-03T08:30:09.138Z,17.60
2018-09-03T08:32:39.021Z,17.60
2018-09-03T08:35:08.912Z,17.50
2018-09-03T08:37:39.322Z,17.30
2018-09-03T08:40:09.462Z,17.30
2018-09-03T08:42:39.442Z,17.40
2018-09-03T08:45:10.168Z,17.70
2018-09-03T08:47:40.210Z,17.90
2018-09-03T08:50:10.028Z,18.00
2018-09-03T08:52:40.483Z,18.10
2018-09-03T08:55:10.670Z,18.20
2018-09-03T08:57:40.593Z,18.50
2018-09-03T09:00:10.985Z,18.50
2018-09-03T09:02:41.015Z,18.60
2018-09-03T09:05:11.063Z,18.90
2018-09-03T09:07:41.287Z,19.10
2018-09-03T09:10:11.315Z,19.10
2018-09-03T09:12:41.134Z,18.60
2018-09-03T09:15:11.434Z,18.40
2018-09-03T09:17:41.440Z,18.50
2018-09-03T09:20:17.641Z,18.50
2018-09-03T09:22:47.415Z,18.60
2018-09-03T09:25:22.176Z,18.80
2018-09-03T09:27:52.328Z,19.00
2018-09-03T09:30:22.258Z,19.40
2018-09-03T09:32:52.639Z,19.90
2018-09-03T09:35:22.384Z,20.10
2018-09-03T09:37:53.738Z,20.20
2018-09-03T09:40:24.146Z,20.10
2018-09-03T09:42:54.211Z,20.10
2018-09-03T09:45:23.854Z,19.70
2018-09-03T09:47:53.818Z,19.40
2018-09-03T09:50:30.371Z,19.10
2018-09-03T09:53:00.556Z,19.10
2018-09-03T09:55:31.002Z,19.50
2018-09-03T09:58:00.750Z,20.00
2018-09-03T10:00:36.295Z,20.40
2018-09-03T10:03:06.991Z,20.80
2018-09-03T10:05:41.877Z,21.10
2018-09-03T10:08:11.872Z,21.10
2018-09-03T10:10:41.889Z,21.20
2018-09-03T10:13:12.003Z,21.30
2018-09-03T10:15:48.915Z,21.30
2018-09-03T10:18:18.819Z,21.90
2018-09-03T10:20:48.811Z,22.30
2018-09-03T10:23:18.658Z,22.40
2018-09-03T10:25:48.629Z,22.40
2018-09-03T10:28:18.521Z,22.70
2018-09-03T10:30:48.754Z,22.70
2018-09-03T10:33:18.985Z,22.10
2018-09-03T10:35:49.035Z,22.00
2018-09-03T10:38:25.801Z,21.70
2018-09-03T10:40:55.756Z,21.70
2018-09-03T10:43:25.774Z,21.60
2018-09-03T10:45:55.702Z,21.50
2018-09-03T10:48:25.558Z,21.10
2018-09-03T10:50:55.950Z,21.20
2018-09-03T10:53:25.629Z,21.40
2018-09-03T10:55:56.015Z,21.50
2018-09-03T10:58:26.585Z,21.90
2018-09-03T11:00:56.764Z,22.70
2018-09-03T11:03:38.554Z,23.40
2018-09-03T11:06:08.941Z,23.80
2018-09-03T11:08:38.694Z,24.50
2018-09-03T11:11:08.584Z,24.20
2018-09-03T11:13:38.661Z,24.30
2018-09-03T11:16:20.663Z,24.80
2018-09-03T11:18:50.769Z,25.20
2018-09-03T11:21:20.907Z,25.00
2018-09-03T11:23:54.982Z,24.40
2018-09-03T11:26:25.130Z,24.50
2018-09-03T11:28:55.076Z,25.00
2018-09-03T11:31:24.975Z,24.20
2018-09-03T11:33:55.312Z,23.10
2018-09-03T11:36:32.224Z,22.70
2018-09-03T11:39:02.746Z,23.90
2018-09-03T11:41:32.987Z,23.50
2018-09-03T11:44:03.694Z,23.30
2018-09-03T11:46:34.285Z,23.00
2018-09-03T11:49:04.158Z,23.50
2018-09-03T11:51:35.617Z,23.90
2018-09-03T11:54:06.497Z,24.10
2018-09-03T11:56:36.880Z,23.80
2018-09-03T11:59:07.406Z,23.40
2018-09-03T12:01:37.777Z,23.90
2018-09-03T12:04:07.785Z,23.90
2018-09-03T12:06:38.428Z,24.00
2018-09-03T12:09:10.876Z,24.70
2018-09-03T12:11:41.372Z,24.10
2018-09-03T12:14:20.846Z,24.00
2018-09-03T12:16:50.865Z,23.60
2018-09-03T12:19:20.529Z,24.10
2018-09-03T12:21:50.416Z,24.10
2018-09-03T12:24:22.014Z,24.50
2018-09-03T12:27:03.657Z,24.60
2018-09-03T12:29:33.631Z,23.60
2018-09-03T12:32:03.030Z,23.10
2018-09-03T12:34:33.081Z,23.60
2018-09-03T12:37:02.668Z,23.00
2018-09-03T12:39:32.079Z,22.70
2018-09-03T12:42:01.677Z,22.80
2018-09-03T12:44:31.925Z,23.20
2018-09-03T12:47:02.064Z,23.50
2018-09-03T12:49:31.927Z,23.90
2018-09-03T12:52:01.855Z,24.30
2018-09-03T12:54:32.794Z,23.70
2018-09-03T12:57:02.893Z,23.50
2018-09-03T12:59:32.732Z,24.10
2018-09-03T13:02:02.160Z,25.10
2018-09-03T13:04:31.835Z,26.80
2018-09-03T13:07:01.265Z,27.80
2018-09-03T13:09:31.381Z,27.70
2018-09-03T13:12:01.354Z,28.80
2018-09-03T13:14:32.364Z,29.20
2018-09-03T13:17:01.890Z,29.10
2018-09-03T13:19:36.573Z,29.30
2018-09-03T13:22:06.908Z,28.40
2018-09-03T13:24:37.609Z,27.60
2018-09-03T13:27:08.362Z,28.40
2018-09-03T13:29:38.334Z,28.80
2018-09-03T13:32:07.941Z,28.50
2018-09-03T13:34:37.926Z,28.90
2018-09-03T13:37:07.503Z,27.70
2018-09-03T13:39:37.946Z,27.70
2018-09-03T13:42:08.158Z,29.60
2018-09-03T13:44:38.310Z,31.10
2018-09-03T13:47:08.005Z,29.50
2018-09-03T13:49:38.098Z,28.70
2018-09-03T13:52:08.129Z,27.70
2018-09-03T13:54:38.044Z,26.50
2018-09-03T13:57:08.509Z,27.00
2018-09-03T13:59:38.545Z,28.50
2018-09-03T14:02:09.118Z,29.20
2018-09-03T14:04:39.496Z,30.20
2018-09-03T14:07:09.572Z,30.60
2018-09-03T14:09:40.222Z,30.30
2018-09-03T14:12:10.574Z,29.30
2018-09-03T14:14:41.541Z,27.20
2018-09-03T14:17:11.757Z,27.50
2018-09-03T14:19:42.577Z,28.20
2018-09-03T14:22:12.661Z,28.00
2018-09-03T14:24:42.641Z,26.70
2018-09-03T14:27:12.718Z,25.90
2018-09-03T14:29:44.005Z,26.70
2018-09-03T14:32:14.856Z,27.10
2018-09-03T14:34:44.831Z,26.50
2018-09-03T14:37:16.889Z,26.10
2018-09-03T14:39:46.861Z,25.70
2018-09-03T14:42:16.902Z,25.80
2018-09-03T14:44:46.793Z,26.30
2018-09-03T14:47:16.917Z,26.80
2018-09-03T14:49:47.830Z,27.10
2018-09-03T14:52:18.067Z,27.20
2018-09-03T14:54:48.145Z,27.30
2018-09-03T14:57:17.896Z,27.90
2018-09-03T14:59:47.834Z,28.20
2018-09-03T15:02:17.868Z,29.30
2018-09-03T15:04:48.003Z,30.10
2018-09-03T15:07:17.910Z,30.00
2018-09-03T15:09:48.055Z,29.30
2018-09-03T15:12:18.133Z,28.50
2018-09-03T15:14:48.262Z,28.00
2018-09-03T15:17:18.458Z,27.90
2018-09-03T15:19:48.526Z,28.30
2018-09-03T15:22:18.250Z,28.20
2018-09-03T15:24:48.093Z,28.00
2018-09-03T15:27:19.041Z,27.10
2018-09-03T15:29:49.166Z,26.50
2018-09-03T15:32:18.938Z,26.60
2018-09-03T15:34:49.091Z,25.50
2018-09-03T15:37:19.162Z,25.50
2018-09-03T15:39:54.766Z,24.80
2018-09-03T15:42:25.330Z,24.30
2018-09-03T15:44:55.030Z,24.60
2018-09-03T15:47:30.224Z,24.30
2018-09-03T15:49:59.994Z,24.00
2018-09-03T15:52:29.772Z,24.20
2018-09-03T15:55:00.247Z,24.40
2018-09-03T15:57:30.310Z,24.20
2018-09-03T16:00:01.244Z,23.80
2018-09-03T16:02:31.886Z,23.50
2018-09-03T16:05:01.572Z,23.40
2018-09-03T16:07:31.282Z,23.10
2018-09-03T16:10:01.242Z,22.90
2018-09-03T16:12:32.001Z,22.80
2018-09-03T16:15:01.664Z,22.90
2018-09-03T16:17:31.854Z,23.00
2018-09-03T16:20:01.578Z,23.00
2018-09-03T16:22:31.257Z,22.90
2018-09-03T16:25:01.045Z,22.80
2018-09-03T16:27:30.834Z,22.80
2018-09-03T16:30:00.653Z,22.90
2018-09-03T16:32:30.832Z,22.50
2018-09-03T16:35:00.726Z,22.60
2018-09-03T16:37:30.404Z,22.90
2018-09-03T16:40:00.162Z,22.60
2018-09-03T16:42:40.094Z,22.40
2018-09-03T16:45:09.798Z,22.10
2018-09-03T16:47:39.479Z,21.90
2018-09-03T16:50:09.234Z,22.00
2018-09-03T16:52:38.933Z,21.90
2018-09-03T16:55:08.638Z,21.80
2018-09-03T16:57:40.326Z,21.60
2018-09-03T17:00:10.123Z,21.40
2018-09-03T17:02:40.198Z,21.30
2018-09-03T17:05:13.756Z,21.20
2018-09-03T17:07:43.592Z,21.10
2018-09-03T17:10:17.987Z,21.00
2018-09-03T17:12:47.803Z,21.00
2018-09-03T17:15:18.091Z,21.00
2018-09-03T17:17:48.562Z,20.80
2018-09-03T17:20:18.544Z,20.70
2018-09-03T17:22:48.353Z,20.50
2018-09-03T17:25:18.505Z,20.40
2018-09-03T17:27:48.408Z,20.20
2018-09-03T17:30:18.151Z,20.00
2018-09-03T17:32:48.149Z,19.80
2018-09-03T17:35:18.453Z,19.70
2018-09-03T17:37:52.826Z,19.50
2018-09-03T17:40:22.766Z,19.40
2018-09-03T17:42:52.683Z,19.20
2018-09-03T17:45:22.338Z,19.10
2018-09-03T17:47:52.029Z,18.90
2018-09-03T17:50:22.259Z,18.80
2018-09-03T17:52:52.394Z,18.60
2018-09-03T17:55:22.467Z,18.60
2018-09-03T17:57:52.166Z,18.40
2018-09-03T18:00:22.538Z,18.30
2018-09-03T18:02:52.297Z,18.20
2018-09-03T18:05:22.262Z,18.10
2018-09-03T18:07:52.406Z,18.10
2018-09-03T18:10:22.866Z,18.00
2018-09-03T18:12:52.709Z,17.90
2018-09-03T18:15:23.112Z,17.70
2018-09-03T18:17:56.004Z,17.60
2018-09-03T18:20:26.517Z,17.50
2018-09-03T18:22:56.899Z,17.40
2018-09-03T18:25:46.558Z,17.30
2018-09-03T18:28:16.933Z,17.20
2018-09-03T18:30:47.241Z,17.20
2018-09-03T18:33:17.429Z,17.10
2018-09-03T18:35:47.957Z,17.00
2018-09-03T18:38:18.678Z,17.00
2018-09-03T18:40:49.986Z,17.00
2018-09-03T18:43:20.705Z,16.90
2018-09-03T18:45:51.230Z,16.80
2018-09-03T18:48:21.294Z,16.70
2018-09-03T18:50:52.639Z,16.60
2018-09-03T18:53:24.192Z,16.50
2018-09-03T18:55:55.744Z,16.50
2018-09-03T18:58:27.151Z,16.40
2018-09-03T19:00:57.842Z,16.20
2018-09-03T19:03:33.143Z,16.10
2018-09-03T19:06:03.198Z,16.00
2018-09-03T19:08:33.209Z,16.00
2018-09-03T19:11:05.484Z,15.90
2018-09-03T19:13:42.364Z,15.80
2018-09-03T19:16:12.891Z,15.70
2018-09-03T19:18:43.436Z,15.60
2018-09-03T19:21:13.820Z,15.60
2018-09-03T19:23:43.515Z,15.50
2018-09-03T19:26:15.266Z,15.40
2018-09-03T19:28:45.533Z,15.30
2018-09-03T19:31:16.466Z,15.20
2018-09-03T19:33:46.427Z,15.20
2018-09-03T19:36:16.979Z,15.10
2018-09-03T19:38:46.564Z,15.00
2018-09-03T19:41:17.336Z,15.00
2018-09-03T19:43:47.346Z,14.90
2018-09-03T19:46:20.371Z,14.70
2018-09-03T19:48:50.459Z,14.70
2018-09-03T19:51:20.917Z,14.60
2018-09-03T19:53:50.513Z,14.60
2018-09-03T19:56:20.489Z,14.60
2018-09-03T19:58:50.609Z,14.50
2018-09-03T20:01:21.579Z,14.50
2018-09-03T20:03:52.617Z,14.50
2018-09-03T20:06:23.550Z,14.50
2018-09-03T20:08:56.488Z,14.40
2018-09-03T20:11:26.775Z,14.30
2018-09-03T20:14:04.855Z,14.10
2018-09-03T20:16:35.627Z,14.20
2018-09-03T20:19:06.186Z,14.10
2018-09-03T20:21:39.264Z,14.20
2018-09-03T20:24:09.190Z,14.20
2018-09-03T20:26:39.643Z,14.20
2018-09-03T20:29:09.589Z,14.20
2018-09-03T20:31:43.726Z,14.20
2018-09-03T20:34:14.700Z,14.10
2018-09-03T20:36:45.229Z,14.10
2018-09-03T20:39:15.307Z,14.00
2018-09-03T20:41:44.885Z,13.90
2018-09-03T20:44:14.741Z,13.80
2018-09-03T20:46:44.993Z,13.80
2018-09-03T20:49:15.691Z,13.70
2018-09-03T20:51:45.799Z,13.60
2018-09-03T20:54:18.737Z,13.50
2018-09-03T20:56:49.941Z,13.50
2018-09-03T20:59:21.821Z,13.50
2018-09-03T21:01:52.417Z,13.50
2018-09-03T21:04:22.805Z,13.50
2018-09-03T21:06:52.807Z,13.50
2018-09-03T21:09:24.831Z,13.50
2018-09-03T21:11:55.005Z,13.50
2018-09-03T21:14:25.006Z,13.50
2018-09-03T21:16:55.061Z,13.40
2018-09-03T21:19:24.870Z,13.40
2018-09-03T21:21:56.348Z,13.50
2018-09-03T21:24:26.066Z,13.30
2018-09-03T21:26:55.908Z,13.20
2018-09-03T21:29:25.958Z,13.10
2018-09-03T21:31:56.067Z,13.10
2018-09-03T21:34:25.958Z,13.20
2018-09-03T21:36:55.997Z,13.20
2018-09-03T21:39:25.952Z,13.10
2018-09-03T21:41:55.992Z,13.10
2018-09-03T21:44:26.032Z,13.10
2018-09-03T21:46:57.033Z,13.10
2018-09-03T21:49:27.319Z,13.10
2018-09-03T21:51:58.675Z,13.10
2018-09-03T21:54:28.980Z,13.10
2018-09-03T21:57:00.062Z,13.10
2018-09-03T21:59:30.731Z,13.20
2018-09-03T22:02:01.648Z,13.20
2018-09-03T22:04:32.113Z,13.20
2018-09-03T22:07:03.142Z,13.10
2018-09-03T22:09:33.338Z,13.10
2018-09-03T22:12:03.417Z,13.00
2018-09-03T22:14:39.861Z,13.00
2018-09-03T22:17:10.478Z,12.90
2018-09-03T22:19:40.862Z,12.90
2018-09-03T22:22:11.331Z,12.90
2018-09-03T22:24:41.722Z,12.90
2018-09-03T22:27:11.887Z,12.90
2018-09-03T22:29:41.915Z,12.80
2018-09-03T22:32:14.421Z,12.80
2018-09-03T22:34:47.419Z,12.80
2018-09-03T22:37:17.583Z,12.90
2018-09-03T22:39:47.856Z,12.80
2018-09-03T22:42:18.400Z,12.80
2018-09-03T22:45:03.382Z,12.70
2018-09-03T22:47:33.900Z,12.70
2018-09-03T22:50:04.507Z,12.60
2018-09-03T22:52:35.314Z,12.60
2018-09-03T22:55:05.962Z,12.60
2018-09-03T22:57:36.516Z,12.50
2018-09-03T23:00:07.374Z,12.50
2018-09-03T23:03:01.990Z,12.50
2018-09-03T23:05:32.103Z,12.50
2018-09-03T23:08:02.611Z,12.40
2018-09-03T23:10:33.689Z,12.40
2018-09-03T23:13:08.039Z,12.40
2018-09-03T23:15:38.394Z,12.30
2018-09-03T23:18:08.579Z,12.30
2018-09-03T23:20:38.695Z,12.30
2018-09-03T23:23:08.735Z,12.30
2018-09-03T23:25:39.086Z,12.30
2018-09-03T23:28:09.638Z,12.30
2018-09-03T23:30:39.835Z,12.30
2018-09-03T23:33:10.174Z,12.30
2018-09-03T23:35:40.617Z,12.20
2018-09-03T23:38:14.100Z,12.20
2018-09-03T23:40:44.286Z,12.10
2018-09-03T23:43:14.727Z,12.10
2018-09-03T23:45:45.248Z,12.20
2018-09-03T23:48:15.656Z,12.10
2018-09-03T23:50:45.793Z,12.10
2018-09-03T23:53:15.870Z,12.10
2018-09-03T23:55:46.189Z,12.00
2018-09-03T23:58:16.266Z,12.00
